createdAt,value
2022-12-08T00:00:11.039Z,9.96
2022-12-08T00:02:37.875Z,10.09
2022-12-08T00:05:23.661Z,9.57
2022-12-08T00:08:08.725Z,9.61
2022-12-08T00:10:50.823Z,9.67
2022-12-08T00:13:17.598Z,9.53
2022-12-08T00:15:44.256Z,9.63
2022-12-08T00:18:10.886Z,9.69
2022-12-08T00:20:37.608Z,9.65
2022-12-08T00:23:04.522Z,9.52
2022-12-08T00:25:32.274Z,9.54
2022-12-08T00:27:58.982Z,9.45
2022-12-08T00:30:25.632Z,9.46
2022-12-08T00:32:52.268Z,9.72
2022-12-08T00:35:18.946Z,9.85
2022-12-08T00:37:45.719Z,9.58
2022-12-08T00:40:12.437Z,9.64
2022-12-08T00:42:39.201Z,9.57
2022-12-08T00:45:06.444Z,9.49
2022-12-08T00:47:33.136Z,9.25
2022-12-08T00:49:59.874Z,9.39
2022-12-08T00:52:26.595Z,9.38
2022-12-08T00:54:53.286Z,9.22
2022-12-08T00:57:20.019Z,9.32
2022-12-08T00:59:46.712Z,9.27
2022-12-08T01:02:13.389Z,9.38
2022-12-08T01:04:40.158Z,9.49
2022-12-08T01:07:06.814Z,9.61
2022-12-08T01:09:33.670Z,9.56
2022-12-08T01:12:00.578Z,9.55
2022-12-08T01:14:27.378Z,9.70
2022-12-08T01:16:54.091Z,9.89
2022-12-08T01:19:20.784Z,9.91
2022-12-08T01:21:47.621Z,9.61
2022-12-08T01:24:17.361Z,9.83
2022-12-08T01:26:44.580Z,9.92
2022-12-08T01:29:11.882Z,9.85
2022-12-08T01:31:39.133Z,9.72
2022-12-08T01:34:07.019Z,9.48
2022-12-08T01:36:38.599Z,9.62
2022-12-08T01:39:08.747Z,9.73
2022-12-08T01:41:37.581Z,9.57
2022-12-08T01:44:08.456Z,9.60
2022-12-08T01:46:37.601Z,9.85
2022-12-08T01:49:21.178Z,9.88
2022-12-08T01:51:56.775Z,9.90
2022-12-08T01:54:26.652Z,9.62
2022-12-08T01:57:01.071Z,9.72
2022-12-08T01:59:31.337Z,9.54
2022-12-08T02:01:58.318Z,9.36
2022-12-08T02:04:24.931Z,9.44
2022-12-08T02:06:52.850Z,9.42
2022-12-08T02:09:20.410Z,9.64
2022-12-08T02:11:47.921Z,9.61
2022-12-08T02:14:15.072Z,9.41
2022-12-08T02:16:52.597Z,9.35
2022-12-08T02:19:47.019Z,9.40
2022-12-08T02:22:20.621Z,9.48
2022-12-08T02:24:57.948Z,9.44
2022-12-08T02:27:43.068Z,9.46
2022-12-08T02:30:15.515Z,9.65
2022-12-08T02:33:18.571Z,9.61
2022-12-08T02:36:04.902Z,9.77
2022-12-08T02:38:52.996Z,9.64
2022-12-08T02:41:45.299Z,9.76
2022-12-08T02:44:32.974Z,9.60
2022-12-08T02:47:07.223Z,9.57
2022-12-08T02:49:35.539Z,9.56
2022-12-08T02:52:25.469Z,9.60
2022-12-08T02:54:59.726Z,9.57
2022-12-08T02:57:32.324Z,9.48
2022-12-08T03:00:13.480Z,9.50
2022-12-08T03:02:55.988Z,9.70
2022-12-08T03:05:40.870Z,9.68
2022-12-08T03:08:39.858Z,9.69
2022-12-08T03:11:11.726Z,9.73
2022-12-08T03:13:50.688Z,9.66
2022-12-08T03:16:22.774Z,9.46
2022-12-08T03:18:56.479Z,9.54
2022-12-08T03:21:23.265Z,9.51
2022-12-08T03:23:56.151Z,9.59
2022-12-08T03:26:31.087Z,9.72
2022-12-08T03:28:58.273Z,9.75
2022-12-08T03:31:29.150Z,9.67
2022-12-08T03:33:58.595Z,9.58
2022-12-08T03:36:25.944Z,9.73
2022-12-08T03:38:54.142Z,9.76
2022-12-08T03:41:22.883Z,9.88
2022-12-08T03:43:55.376Z,9.94
2022-12-08T03:48:50.960Z,9.72
2022-12-08T03:51:17.877Z,9.80
2022-12-08T03:53:46.014Z,9.56
2022-12-08T03:56:23.770Z,9.61
2022-12-08T03:58:50.737Z,9.72
2022-12-08T04:01:17.568Z,9.81
2022-12-08T04:03:44.348Z,9.86
2022-12-08T04:06:11.044Z,9.93
2022-12-08T04:08:37.741Z,9.92
2022-12-08T04:11:06.266Z,10.04
2022-12-08T04:13:37.636Z,10.04
2022-12-08T04:16:05.188Z,9.98
2022-12-08T04:18:32.673Z,10.10
2022-12-08T04:20:59.474Z,10.15
2022-12-08T04:23:26.158Z,10.17
2022-12-08T04:25:53.711Z,9.79
2022-12-08T04:28:20.515Z,9.91
2022-12-08T04:30:48.892Z,9.88
2022-12-08T04:33:16.147Z,9.93
2022-12-08T04:35:42.920Z,9.95
2022-12-08T04:38:09.587Z,9.99
2022-12-08T04:40:36.275Z,9.88
2022-12-08T04:43:03.056Z,9.80
2022-12-08T04:45:29.707Z,9.34
2022-12-08T04:47:56.348Z,9.61
2022-12-08T04:50:23.071Z,9.75
2022-12-08T04:52:49.730Z,9.77
2022-12-08T04:55:16.464Z,9.74
2022-12-08T04:57:43.167Z,9.73
2022-12-08T05:00:10.426Z,9.81
2022-12-08T05:02:37.710Z,10.01
2022-12-08T05:05:05.264Z,9.96
2022-12-08T05:07:32.014Z,10.16
2022-12-08T05:09:58.876Z,10.25
2022-12-08T05:12:26.077Z,10.24
2022-12-08T05:14:52.730Z,10.34
2022-12-08T05:17:19.364Z,10.37
2022-12-08T05:19:46.049Z,10.37
2022-12-08T05:22:12.823Z,10.24
2022-12-08T05:24:45.673Z,10.22
2022-12-08T05:27:13.987Z,10.20
2022-12-08T05:29:40.691Z,10.15
2022-12-08T05:32:07.382Z,10.04
2022-12-08T05:34:34.097Z,10.09
2022-12-08T05:37:00.776Z,9.99
2022-12-08T05:39:27.490Z,9.96
2022-12-08T05:41:54.124Z,9.90
2022-12-08T05:44:20.903Z,9.89
2022-12-08T05:46:47.616Z,9.72
2022-12-08T05:49:14.287Z,9.46
2022-12-08T05:51:40.941Z,9.56
2022-12-08T05:54:07.579Z,9.52
2022-12-08T05:56:34.628Z,9.58
2022-12-08T05:59:01.412Z,9.57
2022-12-08T06:01:31.578Z,9.56
2022-12-08T06:04:00.200Z,9.72
2022-12-08T06:06:27.659Z,9.69
2022-12-08T06:08:54.871Z,9.76
2022-12-08T06:11:27.925Z,9.79
2022-12-08T06:13:56.785Z,9.67
2022-12-08T06:16:26.214Z,9.90
2022-12-08T06:18:53.385Z,10.02
2022-12-08T06:21:20.333Z,9.89
2022-12-08T06:23:51.908Z,10.18
2022-12-08T06:26:19.781Z,10.08
2022-12-08T06:28:46.937Z,9.83
2022-12-08T06:31:19.366Z,10.09
2022-12-08T06:33:47.098Z,10.18
2022-12-08T06:36:15.958Z,10.27
2022-12-08T06:38:43.788Z,10.13
2022-12-08T06:41:12.150Z,9.85
2022-12-08T06:43:39.273Z,9.77
2022-12-08T06:46:08.986Z,9.96
2022-12-08T06:48:36.062Z,10.06
2022-12-08T06:51:13.270Z,10.08
2022-12-08T06:53:40.499Z,10.06
2022-12-08T06:56:08.320Z,10.16
2022-12-08T06:58:35.692Z,10.22
2022-12-08T07:01:06.449Z,10.44
2022-12-08T07:03:33.128Z,10.63
2022-12-08T07:06:03.811Z,10.56
2022-12-08T07:08:39.438Z,10.60
2022-12-08T07:11:16.575Z,10.60
2022-12-08T07:13:46.470Z,10.60
2022-12-08T07:16:13.474Z,10.38
2022-12-08T07:18:41.678Z,10.20
2022-12-08T07:21:11.083Z,9.94
2022-12-08T07:23:38.382Z,10.10
2022-12-08T07:26:07.867Z,10.32
2022-12-08T07:28:36.430Z,10.17
2022-12-08T07:31:04.236Z,10.04
2022-12-08T07:33:31.948Z,10.28
2022-12-08T07:36:01.502Z,10.16
2022-12-08T07:38:28.599Z,10.29
2022-12-08T07:40:55.534Z,10.42
2022-12-08T07:43:23.009Z,10.43
2022-12-08T07:45:50.992Z,10.31
2022-12-08T07:48:18.144Z,10.32
2022-12-08T07:50:45.436Z,10.21
2022-12-08T07:53:12.288Z,10.37
2022-12-08T07:55:43.446Z,10.24
2022-12-08T07:58:11.487Z,10.27
2022-12-08T08:00:38.405Z,10.24
2022-12-08T08:03:05.207Z,10.41
2022-12-08T08:05:32.011Z,10.60
2022-12-08T08:07:58.750Z,10.59
2022-12-08T08:10:25.660Z,10.83
2022-12-08T08:12:52.310Z,10.90
2022-12-08T08:15:21.165Z,11.01
2022-12-08T08:17:51.616Z,10.74
2022-12-08T08:20:19.650Z,10.50
2022-12-08T08:22:50.827Z,10.44
2022-12-08T08:25:19.488Z,10.42
2022-12-08T08:27:46.712Z,10.60
2022-12-08T08:30:19.970Z,10.63
2022-12-08T08:32:48.898Z,10.70
2022-12-08T08:35:15.734Z,10.69
2022-12-08T08:37:47.239Z,10.61
2022-12-08T08:40:15.931Z,10.73
2022-12-08T08:42:42.633Z,10.85
2022-12-08T08:45:09.635Z,10.86
2022-12-08T08:47:36.418Z,10.99
2022-12-08T08:50:03.649Z,10.95
2022-12-08T08:52:31.011Z,11.16
2022-12-08T08:54:57.693Z,11.22
2022-12-08T08:57:25.930Z,11.13
2022-12-08T08:59:53.503Z,11.32
2022-12-08T09:02:21.544Z,11.27
2022-12-08T09:04:48.749Z,11.37
2022-12-08T09:07:16.385Z,11.24
2022-12-08T09:09:43.218Z,11.17
2022-12-08T09:12:10.618Z,10.91
2022-12-08T09:14:37.459Z,11.10
2022-12-08T09:17:04.533Z,11.28
2022-12-08T09:19:31.274Z,11.41
2022-12-08T09:21:57.981Z,11.41
2022-12-08T09:24:24.663Z,11.43
2022-12-08T09:26:51.347Z,11.49
2022-12-08T09:29:18.045Z,11.65
2022-12-08T09:31:45.035Z,11.74
2022-12-08T09:34:12.805Z,11.72
2022-12-08T09:36:43.052Z,11.72
2022-12-08T09:39:09.772Z,11.90
2022-12-08T09:41:48.285Z,11.83
2022-12-08T09:44:59.902Z,11.75
2022-12-08T09:47:35.782Z,11.70
2022-12-08T09:50:31.180Z,11.71
2022-12-08T09:53:19.727Z,11.74
2022-12-08T09:55:52.563Z,11.80
2022-12-08T09:58:35.542Z,11.85
2022-12-08T10:01:04.594Z,11.99
2022-12-08T10:03:31.594Z,11.92
2022-12-08T10:06:16.940Z,12.15
2022-12-08T10:09:12.403Z,12.27
2022-12-08T10:11:54.414Z,11.91
2022-12-08T10:14:39.815Z,11.77
2022-12-08T10:17:26.738Z,11.85
2022-12-08T10:20:12.662Z,11.79
2022-12-08T10:22:44.503Z,11.91
2022-12-08T10:25:22.176Z,12.03
2022-12-08T10:27:54.296Z,12.20
2022-12-08T10:30:22.386Z,12.13
2022-12-08T10:32:51.620Z,12.09
2022-12-08T10:35:20.409Z,12.14
2022-12-08T10:37:58.833Z,12.13
2022-12-08T10:40:29.197Z,12.28
2022-12-08T10:42:59.003Z,12.27
2022-12-08T10:45:29.631Z,12.35
2022-12-08T10:48:03.012Z,12.37
2022-12-08T10:50:55.011Z,12.44
2022-12-08T10:53:25.276Z,12.39
2022-12-08T10:56:03.702Z,12.32
2022-12-08T10:58:36.342Z,12.22
2022-12-08T11:01:23.340Z,12.55
2022-12-08T11:03:51.720Z,12.78
2022-12-08T11:06:32.448Z,12.77
2022-12-08T11:09:06.905Z,12.58
2022-12-08T11:11:48.116Z,12.56
2022-12-08T11:14:31.083Z,12.78
2022-12-08T11:17:08.696Z,12.79
2022-12-08T11:19:40.521Z,12.53
2022-12-08T11:22:35.460Z,12.29
2022-12-08T11:25:07.899Z,12.21
2022-12-08T11:27:37.139Z,12.27
2022-12-08T11:30:14.778Z,12.37
2022-12-08T11:32:44.792Z,12.31
2022-12-08T11:35:21.939Z,12.61
2022-12-08T11:37:48.990Z,12.56
2022-12-08T11:40:26.074Z,12.78
2022-12-08T11:43:23.949Z,12.84
2022-12-08T11:45:59.065Z,12.53
2022-12-08T11:48:45.005Z,12.67
2022-12-08T11:51:33.718Z,12.64
2022-12-08T11:54:24.460Z,12.51
2022-12-08T11:56:59.436Z,12.74
2022-12-08T11:59:34.919Z,12.92
2022-12-08T12:02:04.356Z,12.76
2022-12-08T12:04:36.918Z,13.03
2022-12-08T12:07:28.551Z,12.97
2022-12-08T12:10:25.920Z,12.97
2022-12-08T12:13:17.312Z,13.00
2022-12-08T12:15:43.989Z,13.02
2022-12-08T12:18:29.362Z,13.07
2022-12-08T12:21:01.110Z,12.97
2022-12-08T12:23:39.664Z,13.06
2022-12-08T12:26:09.609Z,13.02
2022-12-08T12:29:09.144Z,12.98
2022-12-08T12:31:41.568Z,13.13
2022-12-08T12:34:32.956Z,13.14
2022-12-08T12:37:10.380Z,12.95
2022-12-08T12:39:58.442Z,12.50
2022-12-08T12:42:40.293Z,12.58
2022-12-08T12:45:20.153Z,12.69
2022-12-08T12:47:54.341Z,12.86
2022-12-08T12:50:32.232Z,12.97
2022-12-08T12:53:23.315Z,13.01
2022-12-08T12:55:56.290Z,12.80
2022-12-08T12:58:29.619Z,12.35
2022-12-08T13:01:08.570Z,12.39
2022-12-08T13:03:35.384Z,12.42
2022-12-08T13:06:02.403Z,12.61
2022-12-08T13:08:29.452Z,12.60
2022-12-08T13:11:02.352Z,12.38
2022-12-08T13:13:29.716Z,12.45
2022-12-08T13:16:20.606Z,12.40
2022-12-08T13:18:52.599Z,12.15
2022-12-08T13:21:23.137Z,12.20
2022-12-08T13:24:26.865Z,12.10
2022-12-08T13:27:05.281Z,12.04
2022-12-08T13:29:33.827Z,12.01
2022-12-08T13:32:39.026Z,12.00
2022-12-08T13:35:15.667Z,11.93
2022-12-08T13:37:54.031Z,11.88
2022-12-08T13:40:25.535Z,11.82
2022-12-08T13:43:10.660Z,11.87
2022-12-08T13:46:41.969Z,11.85
2022-12-08T13:56:05.611Z,11.91
2022-12-08T13:57:30.694Z,11.95
2022-12-08T14:00:15.384Z,11.84
2022-12-08T14:02:47.688Z,11.87
2022-12-08T14:05:19.147Z,11.98
2022-12-08T14:07:56.197Z,11.96
2022-12-08T14:10:28.382Z,11.94
2022-12-08T14:13:05.280Z,11.91
2022-12-08T14:15:38.665Z,11.91
2022-12-08T14:18:07.435Z,11.84
2022-12-08T14:20:57.728Z,11.80
2022-12-08T14:23:22.392Z,11.75
2022-12-08T14:25:49.156Z,11.73
2022-12-08T14:28:16.561Z,11.68
2022-12-08T14:30:43.400Z,11.61
2022-12-08T14:33:16.971Z,11.56
2022-12-08T14:35:51.124Z,11.52
2022-12-08T14:38:20.406Z,11.54
2022-12-08T14:40:48.884Z,11.53
2022-12-08T14:43:17.457Z,11.54
2022-12-08T14:45:56.904Z,11.55
2022-12-08T14:48:38.794Z,11.60
2022-12-08T14:51:23.380Z,11.83
2022-12-08T14:54:19.072Z,11.70
2022-12-08T14:56:52.708Z,11.55
2022-12-08T14:59:41.263Z,12.00
2022-12-08T15:02:15.658Z,12.10
2022-12-08T15:04:45.666Z,12.33
2022-12-08T15:07:19.046Z,12.28
2022-12-08T15:09:51.428Z,12.14
2022-12-08T15:12:27.452Z,12.35
2022-12-08T15:14:59.178Z,12.19
2022-12-08T15:17:40.773Z,12.06
2022-12-08T15:20:44.303Z,12.04
2022-12-08T15:23:27.475Z,11.94
2022-12-08T15:25:55.992Z,11.84
2022-12-08T15:28:29.701Z,11.91
2022-12-08T15:30:57.790Z,12.24
2022-12-08T15:33:24.615Z,12.36
2022-12-08T15:35:52.006Z,12.51
2022-12-08T15:38:29.157Z,12.46
2022-12-08T15:40:58.803Z,12.32
2022-12-08T15:43:25.780Z,12.28
2022-12-08T15:45:59.592Z,12.24
2022-12-08T15:48:30.477Z,12.07
2022-12-08T15:50:57.632Z,11.96
2022-12-08T15:53:25.590Z,12.30
2022-12-08T15:56:25.581Z,12.40
2022-12-08T15:58:56.524Z,12.46
2022-12-08T16:01:24.615Z,12.25
2022-12-08T16:09:40.282Z,12.04
2022-12-08T16:13:13.309Z,11.97
2022-12-08T16:15:51.292Z,11.81
2022-12-08T16:18:14.019Z,11.87
2022-12-08T16:23:42.130Z,12.16
2022-12-08T16:27:35.088Z,11.93
2022-12-08T16:29:20.352Z,12.02
2022-12-08T16:31:47.667Z,12.33
2022-12-08T16:34:14.623Z,12.19
2022-12-08T16:36:41.691Z,12.40
2022-12-08T16:39:10.672Z,12.24
2022-12-08T16:41:55.842Z,11.85
2022-12-08T16:44:22.619Z,11.90
2022-12-08T16:46:49.510Z,12.03
2022-12-08T16:49:16.679Z,12.02
2022-12-08T16:51:43.867Z,12.03
2022-12-08T16:54:10.754Z,11.98
2022-12-08T16:56:37.578Z,11.87
2022-12-08T16:59:04.498Z,11.68
2022-12-08T17:01:32.728Z,11.56
2022-12-08T17:06:47.243Z,11.44
2022-12-08T17:09:13.905Z,11.55
2022-12-08T17:11:43.298Z,11.69
2022-12-08T17:14:11.178Z,11.63
2022-12-08T17:16:38.616Z,11.74
2022-12-08T17:19:06.219Z,11.77
2022-12-08T17:21:33.161Z,11.78
2022-12-08T17:24:00.014Z,12.14
2022-12-08T17:26:27.044Z,11.88
2022-12-08T17:29:01.661Z,11.91
2022-12-08T17:31:31.234Z,11.94
2022-12-08T17:34:03.206Z,11.86
2022-12-08T17:36:30.080Z,11.97
2022-12-08T17:38:58.471Z,11.91
2022-12-08T17:41:25.378Z,11.97
2022-12-08T17:43:52.090Z,11.97
2022-12-08T17:46:19.803Z,11.78
2022-12-08T17:48:46.884Z,11.89
2022-12-08T17:51:14.752Z,11.88
2022-12-08T17:53:41.537Z,11.81
2022-12-08T17:56:16.480Z,11.92
2022-12-08T17:58:43.202Z,11.77
2022-12-08T18:01:10.877Z,11.75
2022-12-08T18:03:38.263Z,11.87
2022-12-08T18:06:13.840Z,12.08
2022-12-08T18:08:40.852Z,11.88
2022-12-08T18:11:13.083Z,11.89
2022-12-08T18:13:40.144Z,12.06
2022-12-08T18:16:07.058Z,12.06
2022-12-08T18:18:35.088Z,12.20
2022-12-08T18:21:01.780Z,12.43
2022-12-08T18:23:28.452Z,12.52
2022-12-08T18:25:55.206Z,12.67
2022-12-08T18:28:21.946Z,12.58
2022-12-08T18:30:48.723Z,12.54
2022-12-08T18:33:15.516Z,12.44
2022-12-08T18:35:42.335Z,12.43
2022-12-08T18:38:09.004Z,12.52
2022-12-08T18:40:35.745Z,12.51
2022-12-08T18:43:05.287Z,12.56
2022-12-08T18:45:32.078Z,12.35
2022-12-08T18:47:58.717Z,12.46
2022-12-08T18:50:25.439Z,12.35
2022-12-08T18:52:52.207Z,12.17
2022-12-08T18:55:19.061Z,12.12
2022-12-08T18:57:46.183Z,12.11
2022-12-08T19:00:18.128Z,11.95
2022-12-08T19:02:45.018Z,11.77
2022-12-08T19:05:13.474Z,12.01
2022-12-08T19:07:40.350Z,12.13
2022-12-08T19:10:07.841Z,12.07
2022-12-08T19:12:34.732Z,12.36
2022-12-08T19:15:01.455Z,12.42
2022-12-08T19:17:29.729Z,12.12
2022-12-08T19:19:56.483Z,12.37
2022-12-08T19:22:23.281Z,12.46
2022-12-08T19:24:49.988Z,12.48
2022-12-08T19:27:17.102Z,12.35
2022-12-08T19:29:43.764Z,12.02
2022-12-08T19:32:10.657Z,12.17
2022-12-08T19:34:37.347Z,12.32
2022-12-08T19:37:04.244Z,12.28
2022-12-08T19:39:49.762Z,12.31
2022-12-08T19:42:37.373Z,12.29
2022-12-08T19:45:24.351Z,12.25
2022-12-08T19:47:51.186Z,12.01
2022-12-08T19:50:36.335Z,11.85
2022-12-08T19:53:08.590Z,11.83
2022-12-08T19:55:36.690Z,12.04
2022-12-08T19:58:04.701Z,11.95
2022-12-08T20:00:32.696Z,11.78
2022-12-08T20:03:01.067Z,11.77
2022-12-08T20:05:29.147Z,11.86
2022-12-08T20:07:56.454Z,11.91
2022-12-08T20:10:30.716Z,11.91
2022-12-08T20:13:17.391Z,12.10
2022-12-08T20:15:45.225Z,11.91
2022-12-08T20:18:13.416Z,11.95
2022-12-08T20:20:41.363Z,12.28
2022-12-08T20:23:08.144Z,12.37
2022-12-08T20:25:35.195Z,12.28
2022-12-08T20:28:01.950Z,12.28
2022-12-08T20:30:28.575Z,12.17
2022-12-08T20:32:55.336Z,12.26
2022-12-08T20:35:22.287Z,11.97
2022-12-08T20:37:49.028Z,12.13
2022-12-08T20:40:16.031Z,12.10
2022-12-08T20:42:42.805Z,12.17
2022-12-08T20:45:10.129Z,12.05
2022-12-08T20:47:37.158Z,12.16
2022-12-08T20:50:07.470Z,12.28
2022-12-08T20:52:34.473Z,12.16
2022-12-08T20:55:01.434Z,12.28
2022-12-08T20:57:28.346Z,12.10
2022-12-08T20:59:55.373Z,12.18
2022-12-08T21:02:22.344Z,12.28
2022-12-08T21:04:49.317Z,12.24
2022-12-08T21:07:16.130Z,12.05
2022-12-08T21:09:42.902Z,12.03
2022-12-08T21:12:09.959Z,12.15
2022-12-08T21:14:37.072Z,12.05
2022-12-08T21:17:04.776Z,11.76
2022-12-08T21:19:31.879Z,11.87
2022-12-08T21:21:58.675Z,11.99
2022-12-08T21:24:28.975Z,11.95
2022-12-08T21:27:00.280Z,11.99
2022-12-08T21:29:27.110Z,11.84
2022-12-08T21:31:55.651Z,11.89
2022-12-08T21:34:22.546Z,11.88
2022-12-08T21:36:49.362Z,11.79
2022-12-08T21:39:16.093Z,11.75
2022-12-08T21:42:01.281Z,11.84
2022-12-08T21:44:28.095Z,11.91
2022-12-08T21:46:55.143Z,11.87
2022-12-08T21:49:22.020Z,11.88
2022-12-08T21:51:48.762Z,11.92
2022-12-08T21:54:18.962Z,11.83
2022-12-08T21:56:47.640Z,12.01
2022-12-08T21:59:15.390Z,11.89
2022-12-08T22:01:45.279Z,11.59
2022-12-08T22:04:17.480Z,11.54
2022-12-08T22:06:44.244Z,11.73
2022-12-08T22:09:13.547Z,11.84
2022-12-08T22:11:41.101Z,11.75
2022-12-08T22:14:13.829Z,11.74
2022-12-08T22:16:41.674Z,11.63
2022-12-08T22:19:08.756Z,11.56
2022-12-08T22:21:35.582Z,11.53
2022-12-08T22:24:02.278Z,11.44
2022-12-08T22:26:29.013Z,11.53
2022-12-08T22:28:55.837Z,11.62
2022-12-08T22:31:22.736Z,11.55
2022-12-08T22:33:50.553Z,11.47
2022-12-08T22:36:25.490Z,11.52
2022-12-08T22:38:53.612Z,11.57
2022-12-08T22:41:21.590Z,11.58
2022-12-08T22:43:49.181Z,11.57
2022-12-08T22:46:17.236Z,11.43
2022-12-08T22:48:44.108Z,11.42
2022-12-08T22:51:11.353Z,11.45
2022-12-08T22:53:38.147Z,11.26
2022-12-08T22:56:09.918Z,11.22
2022-12-08T22:58:37.931Z,11.41
2022-12-08T23:01:05.754Z,11.54
2022-12-08T23:03:33.418Z,11.58
2022-12-08T23:06:00.947Z,11.57
2022-12-08T23:08:28.293Z,11.59
2022-12-08T23:10:55.409Z,11.51
2022-12-08T23:13:22.389Z,11.47
2022-12-08T23:15:49.622Z,11.60
2022-12-08T23:18:19.303Z,11.48
2022-12-08T23:20:47.592Z,11.41
2022-12-08T23:23:15.445Z,11.50
2022-12-08T23:25:43.403Z,11.50
2022-12-08T23:28:11.265Z,11.50
2022-12-08T23:30:41.836Z,11.55
2022-12-08T23:33:08.566Z,11.52
2022-12-08T23:35:35.370Z,11.52
2022-12-08T23:38:02.031Z,11.62
2022-12-08T23:40:28.844Z,11.65
2022-12-08T23:42:55.542Z,11.50
2022-12-08T23:45:22.674Z,11.38
2022-12-08T23:47:49.524Z,11.39
2022-12-08T23:50:16.508Z,11.44
2022-12-08T23:52:43.614Z,11.34
2022-12-08T23:55:11.176Z,11.36
2022-12-08T23:57:39.198Z,11.18
